Time;durP1;ratioP1;P1;durP2;ratioP2;P2;SDS_P1;SDS_P2;PMS_P1;PMS_P2;Temp;Humidity;BMP_temperature;BMP_pressure;BME280_temperature;BME280_humidity;BME280_pressure;Samples;Min_cycle;Max_cycle;Signal;HPM_P1;HPM_P2
2022/05/05 00:01:51;;;;;;;;;;;10.50;97.10;;;;;;4978053;28;20340;-75
2022/05/05 00:04:19;;;;;;;;;;;10.50;97.20;;;;;;4961463;28;19945;-75
2022/05/05 00:06:45;;;;;;;;;;;10.50;97.10;;;;;;4979206;28;19914;-75
2022/05/05 00:09:10;;;;;;;;;;;10.40;97.20;;;;;;4978846;28;19909;-75
2022/05/05 00:14:23;;;;;;;;;;;10.40;97.40;;;;;;4979154;28;20506;-75
2022/05/05 00:16:53;;;;;;;;;;;10.40;97.10;;;;;;4979448;28;19921;-75
2022/05/05 00:19:18;;;;;;;;;;;10.40;97.30;;;;;;4980663;28;19910;-75
2022/05/05 00:21:44;;;;;;;;;;;10.40;97.20;;;;;;4981145;28;19901;-75
2022/05/05 00:24:11;;;;;;;;;;;10.40;97.20;;;;;;4963239;28;19906;-75
2022/05/05 00:26:37;;;;;;;;;;;10.50;97.70;;;;;;4986837;28;19905;-75
2022/05/05 00:29:02;;;;;;;;;;;10.30;97.70;;;;;;4987243;28;20482;-75
2022/05/05 00:31:28;;;;;;;;;;;10.30;97.80;;;;;;4968942;28;19905;-75
2022/05/05 00:33:53;;;;;;;;;;;10.20;97.80;;;;;;4986747;28;20680;-76
2022/05/05 00:36:19;;;;;;;;;;;10.20;97.90;;;;;;4986003;28;19996;-75
2022/05/05 00:38:44;;;;;;;;;;;10.20;98.10;;;;;;4984220;28;20000;-74
2022/05/05 00:41:10;;;;;;;;;;;10.20;97.80;;;;;;4983988;28;20335;-74
2022/05/05 00:43:36;;;;;;;;;;;10.20;97.70;;;;;;4983709;28;19963;-74
2022/05/05 00:46:04;;;;;;;;;;;12.60;98.80;;;;;;4980966;28;20475;-74
2022/05/05 00:48:30;;;;;;;;;;;10.10;97.90;;;;;;4978160;28;20001;-75
2022/05/05 00:50:56;;;;;;;;;;;10.00;98.10;;;;;;4978005;28;19993;-75
2022/05/05 00:53:22;;;;;;;;;;;9.70;98.20;;;;;;4977606;28;20558;-74
2022/05/05 00:55:50;;;;;;;;;;;9.90;98.20;;;;;;4977751;28;19913;-74
2022/05/05 00:58:16;;;;;;;;;;;9.90;98.40;;;;;;4977561;28;19944;-75
2022/05/05 01:00:42;;;;;;;;;;;9.80;98.40;;;;;;4980595;28;20481;-75
2022/05/05 01:03:08;;;;;;;;;;;9.80;98.80;;;;;;4981333;28;19905;-75
2022/05/05 01:05:34;;;;;;;;;;;9.90;98.60;;;;;;4980912;28;19925;-75
2022/05/05 01:07:59;;;;;;;;;;;9.90;98.70;;;;;;4980785;28;19906;-75
2022/05/05 01:10:25;;;;;;;;;;;9.80;98.80;;;;;;4980899;28;20007;-74
2022/05/05 01:12:52;;;;;;;;;;;9.80;98.80;;;;;;4980931;28;20068;-75
2022/05/05 01:15:18;;;;;;;;;;;9.70;98.70;;;;;;4981061;28;19902;-75
2022/05/05 01:17:44;;;;;;;;;;;9.70;98.90;;;;;;4963473;28;19997;-75
2022/05/05 01:20:11;;;;;;;;;;;9.70;98.90;;;;;;4962823;28;20017;-74
2022/05/05 01:22:36;;;;;;;;;;;9.70;98.90;;;;;;4980955;28;19949;-75
2022/05/05 01:30:30;;;;;;;;;;;9.70;98.80;;;;;;4980801;28;20465;-75
2022/05/05 01:32:56;;;;;;;;;;;9.70;98.90;;;;;;4980946;28;19913;-75
2022/05/05 01:35:21;;;;;;;;;;;9.60;98.90;;;;;;4980667;28;19913;-75
2022/05/05 01:37:47;;;;;;;;;;;9.70;99.00;;;;;;4980599;28;20458;-75
2022/05/05 01:40:14;;;;;;;;;;;9.60;99.60;;;;;;4980697;28;19976;-75
2022/05/05 01:42:40;;;;;;;;;;;9.60;99.30;;;;;;4963144;28;20450;-75
2022/05/05 01:45:06;;;;;;;;;;;9.50;99.50;;;;;;4980177;28;19906;-75
2022/05/05 01:47:31;;;;;;;;;;;9.50;99.60;;;;;;4980349;28;19988;-75
2022/05/05 01:50:00;;;;;;;;;;;9.50;99.50;;;;;;4980547;28;20210;-75
2022/05/05 01:52:27;;;;;;;;;;;9.50;99.40;;;;;;4980278;28;19918;-75
2022/05/05 01:54:56;;;;;;;;;;;9.20;99.40;;;;;;4980070;28;19909;-75
2022/05/05 01:57:21;;;;;;;;;;;12.30;99.90;;;;;;4980278;28;19909;-75
2022/05/05 01:59:47;;;;;;;;;;;9.50;99.60;;;;;;4980120;28;19909;-75
2022/05/05 02:02:12;;;;;;;;;;;9.40;99.70;;;;;;4979524;28;19902;-75
2022/05/05 02:04:38;;;;;;;;;;;9.40;99.90;;;;;;4980431;28;19967;-74
2022/05/05 02:07:03;;;;;;;;;;;9.30;99.90;;;;;;4979651;28;19996;-75
2022/05/05 02:09:30;;;;;;;;;;;9.30;99.90;;;;;;4979777;28;20396;-75
2022/05/05 02:11:56;;;;;;;;;;;9.30;99.90;;;;;;4979254;28;20664;-75
2022/05/05 02:14:24;;;;;;;;;;;9.20;99.90;;;;;;4979454;28;20069;-75
2022/05/05 02:16:50;;;;;;;;;;;9.10;99.90;;;;;;4979316;28;20008;-75
2022/05/05 02:19:16;;;;;;;;;;;9.10;99.90;;;;;;4962489;28;20506;-75
2022/05/05 02:21:44;;;;;;;;;;;9.10;99.90;;;;;;4980079;28;19916;-75
2022/05/05 02:24:10;;;;;;;;;;;9.10;99.90;;;;;;4980586;28;19912;-75
2022/05/05 02:26:35;;;;;;;;;;;9.20;99.90;;;;;;4980908;28;19902;-74
2022/05/05 02:29:02;;;;;;;;;;;9.20;99.90;;;;;;4980464;28;19912;-75
2022/05/05 02:31:27;;;;;;;;;;;9.10;99.90;;;;;;4963536;28;20596;-75
2022/05/05 02:33:56;;;;;;;;;;;9.10;99.90;;;;;;4979667;28;19910;-74
2022/05/05 02:39:05;;;;;;;;;;;8.90;99.90;;;;;;4980122;28;19925;-75
2022/05/05 02:41:31;;;;;;;;;;;8.70;99.90;;;;;;4979168;28;19905;-74
2022/05/05 02:43:57;;;;;;;;;;;8.90;99.90;;;;;;4979032;28;19906;-74
2022/05/05 02:46:22;;;;;;;;;;;8.80;99.90;;;;;;4978971;28;19905;-74
2022/05/05 02:48:48;;;;;;;;;;;8.80;99.90;;;;;;4979170;28;20080;-74
2022/05/05 02:51:13;;;;;;;;;;;8.70;99.90;;;;;;4978705;28;19933;-74
2022/05/05 02:56:23;;;;;;;;;;;8.80;99.90;;;;;;4978699;28;20028;-74
2022/05/05 02:58:49;;;;;;;;;;;8.80;99.90;;;;;;4978836;28;20601;-74
2022/05/05 03:01:14;;;;;;;;;;;8.70;99.90;;;;;;4979430;28;19957;-74
2022/05/05 03:03:40;;;;;;;;;;;8.70;99.90;;;;;;4961749;28;19905;-74
2022/05/05 03:06:05;;;;;;;;;;;8.60;99.90;;;;;;4978944;28;19913;-73
2022/05/05 03:08:31;;;;;;;;;;;8.60;99.90;;;;;;4978722;28;19918;-73
2022/05/05 03:10:56;;;;;;;;;;;8.50;99.90;;;;;;4961950;28;19905;-74
2022/05/05 03:13:22;;;;;;;;;;;8.90;99.90;;;;;;4979131;28;20588;-74
2022/05/05 03:15:48;;;;;;;;;;;8.70;99.90;;;;;;4982011;28;20512;-74
2022/05/05 03:18:13;;;;;;;;;;;8.60;99.90;;;;;;4983503;28;19918;-74
2022/05/05 03:20:39;;;;;;;;;;;8.60;99.90;;;;;;4984578;28;19906;-74
2022/05/05 03:23:04;;;;;;;;;;;8.60;99.90;;;;;;4984557;28;19913;-75
2022/05/05 03:25:30;;;;;;;;;;;8.60;99.90;;;;;;4987493;28;20509;-74
2022/05/05 03:27:56;;;;;;;;;;;8.60;99.90;;;;;;4983036;28;20363;-75
2022/05/05 03:30:22;;;;;;;;;;;8.60;99.90;;;;;;4984773;28;19905;-73
2022/05/05 03:32:48;;;;;;;;;;;8.50;99.90;;;;;;4984547;28;19914;-73
2022/05/05 03:35:13;;;;;;;;;;;8.50;99.90;;;;;;4980598;28;19906;-74
2022/05/05 03:37:39;;;;;;;;;;;8.50;99.90;;;;;;4961629;28;19909;-74
2022/05/05 03:40:05;;;;;;;;;;;8.60;99.90;;;;;;4979138;28;19913;-74
2022/05/05 03:42:30;;;;;;;;;;;8.60;99.90;;;;;;4960847;28;19996;-74
2022/05/05 03:44:56;;;;;;;;;;;8.50;99.90;;;;;;4978509;28;20001;-74
2022/05/05 03:47:21;;;;;;;;;;;8.50;99.90;;;;;;4978143;28;19960;-73
2022/05/05 03:49:47;;;;;;;;;;;8.40;99.90;;;;;;4978383;28;19956;-74
2022/05/05 03:52:15;;;;;;;;;;;8.50;99.90;;;;;;4978253;28;19913;-75
2022/05/05 03:54:41;;;;;;;;;;;8.40;99.90;;;;;;4978278;28;20000;-74
2022/05/05 03:57:06;;;;;;;;;;;8.40;99.90;;;;;;4960568;28;19993;-74
2022/05/05 03:59:32;;;;;;;;;;;8.50;99.90;;;;;;4978312;28;20404;-74
2022/05/05 04:01:57;;;;;;;;;;;8.50;99.90;;;;;;4978135;28;19933;-73
2022/05/05 04:04:25;;;;;;;;;;;8.40;99.90;;;;;;4961004;28;20250;-73
2022/05/05 04:06:50;;;;;;;;;;;8.50;99.90;;;;;;4978575;28;20566;-74
2022/05/05 04:09:16;;;;;;;;;;;8.50;99.90;;;;;;4978205;28;19914;-74
2022/05/05 04:11:41;;;;;;;;;;;8.40;99.90;;;;;;4959979;28;19918;-74
2022/05/05 04:14:07;;;;;;;;;;;8.40;99.90;;;;;;4978236;28;19909;-74
2022/05/05 04:16:32;;;;;;;;;;;8.60;99.90;;;;;;4978073;28;19922;-73
2022/05/05 04:19:03;;;;;;;;;;;8.50;99.90;;;;;;4960507;28;20573;-74
2022/05/05 04:21:29;;;;;;;;;;;11.60;99.90;;;;;;4977884;28;19913;-74
2022/05/05 04:23:54;;;;;;;;;;;8.50;99.90;;;;;;4978059;28;20159;-74
2022/05/05 04:26:20;;;;;;;;;;;8.50;99.90;;;;;;4978111;28;19910;-74
2022/05/05 04:28:50;;;;;;;;;;;8.50;99.90;;;;;;4977707;28;19981;-74
2022/05/05 04:31:17;;;;;;;;;;;8.60;99.90;;;;;;4977993;28;19910;-74
2022/05/05 04:33:43;;;;;;;;;;;8.60;99.90;;;;;;4987317;28;20419;-74
2022/05/05 04:36:09;;;;;;;;;;;8.70;99.90;;;;;;4986376;28;19906;-74
2022/05/05 04:38:35;;;;;;;;;;;8.70;99.90;;;;;;4982239;28;19952;-74
2022/05/05 04:41:01;;;;;;;;;;;8.70;99.90;;;;;;4982300;28;20060;-74
2022/05/05 04:43:26;;;;;;;;;;;8.80;99.90;;;;;;4965248;28;20756;-74
2022/05/05 04:45:52;;;;;;;;;;;8.90;99.90;;;;;;4965376;28;20621;-74
2022/05/05 04:48:18;;;;;;;;;;;9.00;99.90;;;;;;4965215;28;19901;-75
2022/05/05 04:50:43;;;;;;;;;;;9.00;99.90;;;;;;4982626;28;20592;-74
2022/05/05 04:53:09;;;;;;;;;;;9.20;99.90;;;;;;4982141;28;19914;-75
2022/05/05 04:55:35;;;;;;;;;;;9.30;99.90;;;;;;4986249;28;19910;-74
2022/05/05 04:58:00;;;;;;;;;;;9.40;99.90;;;;;;4990226;28;19906;-74
2022/05/05 05:00:26;;;;;;;;;;;9.50;99.90;;;;;;4990388;28;19910;-74
2022/05/05 05:02:52;;;;;;;;;;;9.60;99.90;;;;;;4981472;28;19971;-74
2022/05/05 05:05:17;;;;;;;;;;;9.70;99.70;;;;;;4963688;28;19905;-74
2022/05/05 05:07:43;;;;;;;;;;;9.70;99.90;;;;;;4980925;28;20619;-75
2022/05/05 05:10:09;;;;;;;;;;;10.00;99.60;;;;;;4981057;28;19902;-74
2022/05/05 05:12:34;;;;;;;;;;;10.10;99.00;;;;;;4980749;28;19917;-74
2022/05/05 05:15:00;;;;;;;;;;;10.10;99.10;;;;;;4981466;28;20003;-74
2022/05/05 05:17:25;;;;;;;;;;;10.10;98.80;;;;;;4980566;28;20553;-74
2022/05/05 05:19:51;;;;;;;;;;;10.20;99.00;;;;;;4980906;28;20399;-75
2022/05/05 05:22:17;;;;;;;;;;;10.30;98.80;;;;;;4981097;28;19906;-74
2022/05/05 05:24:42;;;;;;;;;;;10.30;98.60;;;;;;4981111;28;20459;-74
2022/05/05 05:27:08;;;;;;;;;;;10.50;98.30;;;;;;4980870;28;19906;-74
2022/05/05 05:29:34;;;;;;;;;;;10.60;98.50;;;;;;4980907;28;19913;-75
2022/05/05 05:31:59;;;;;;;;;;;10.80;97.90;;;;;;4963031;28;19913;-74
2022/05/05 05:34:25;;;;;;;;;;;10.90;97.60;;;;;;4980356;28;19908;-74
2022/05/05 05:36:51;;;;;;;;;;;10.90;97.60;;;;;;4980124;28;19910;-74
2022/05/05 05:39:17;;;;;;;;;;;11.10;97.60;;;;;;4982550;28;19922;-74
2022/05/05 05:41:43;;;;;;;;;;;11.20;97.10;;;;;;4985531;28;19902;-75
2022/05/05 05:44:08;;;;;;;;;;;11.10;97.20;;;;;;4985815;28;20005;-75
2022/05/05 05:46:34;;;;;;;;;;;11.30;97.40;;;;;;4985096;28;19906;-75
2022/05/05 05:48:59;;;;;;;;;;;11.30;97.10;;;;;;4980545;28;20561;-74
2022/05/05 05:51:25;;;;;;;;;;;11.40;97.00;;;;;;4962487;28;20612;-74
2022/05/05 05:53:51;;;;;;;;;;;11.60;96.50;;;;;;4980233;28;20557;-74
2022/05/05 05:56:17;;;;;;;;;;;11.90;96.40;;;;;;4964239;28;19901;-74
2022/05/05 05:58:43;;;;;;;;;;;12.10;96.20;;;;;;4983501;28;20499;-74
2022/05/05 06:01:08;;;;;;;;;;;12.00;96.00;;;;;;4984750;28;20364;-74
2022/05/05 06:06:18;;;;;;;;;;;12.10;95.40;;;;;;4986053;28;19921;-74
2022/05/05 06:08:44;;;;;;;;;;;12.30;95.50;;;;;;4984833;28;19913;-75
2022/05/05 06:11:11;;;;;;;;;;;12.50;95.00;;;;;;4983721;28;20547;-74
2022/05/05 06:13:37;;;;;;;;;;;12.80;94.40;;;;;;4983022;28;20115;-74
2022/05/05 06:16:04;;;;;;;;;;;12.90;94.50;;;;;;4981612;28;20388;-74
2022/05/05 06:18:30;;;;;;;;;;;12.90;94.50;;;;;;4980461;28;20625;-74
2022/05/05 06:20:56;;;;;;;;;;;13.00;94.10;;;;;;4980280;28;19901;-75
2022/05/05 06:23:22;;;;;;;;;;;13.10;93.50;;;;;;4962318;28;20548;-74
2022/05/05 06:25:49;;;;;;;;;;;13.40;93.30;;;;;;4979731;28;19950;-74
2022/05/05 06:28:14;;;;;;;;;;;13.50;92.50;;;;;;4962073;28;20527;-73
2022/05/05 06:30:40;;;;;;;;;;;13.70;92.60;;;;;;4979264;28;19992;-74
2022/05/05 06:33:05;;;;;;;;;;;13.80;92.50;;;;;;4979538;28;19976;-74
2022/05/05 06:35:31;;;;;;;;;;;14.00;92.40;;;;;;4979153;28;19912;-74
2022/05/05 06:37:56;;;;;;;;;;;14.20;91.70;;;;;;4979345;28;19918;-76
2022/05/05 06:40:22;;;;;;;;;;;14.30;91.60;;;;;;4979230;28;20004;-75
2022/05/05 06:42:48;;;;;;;;;;;14.60;91.00;;;;;;4979168;28;20523;-74
2022/05/05 06:45:14;;;;;;;;;;;14.50;90.80;;;;;;4978709;28;19909;-74
2022/05/05 06:47:40;;;;;;;;;;;14.70;90.70;;;;;;4961498;28;19901;-75
2022/05/05 06:50:06;;;;;;;;;;;14.80;90.20;;;;;;4979167;28;19901;-74
2022/05/05 06:52:31;;;;;;;;;;;14.90;90.00;;;;;;4979313;28;19971;-74
2022/05/05 06:54:57;;;;;;;;;;;15.10;89.10;;;;;;4979199;28;19906;-74
2022/05/05 06:57:23;;;;;;;;;;;15.10;88.80;;;;;;4978232;28;19987;-74
2022/05/05 06:59:48;;;;;;;;;;;15.10;89.80;;;;;;4978331;28;19906;-75
2022/05/05 07:02:14;;;;;;;;;;;15.50;88.20;;;;;;4979197;28;19912;-74
2022/05/05 07:07:23;;;;;;;;;;;15.50;87.00;;;;;;4978872;28;19952;-75
2022/05/05 07:12:33;;;;;;;;;;;16.10;85.10;;;;;;4980622;28;19912;-74
2022/05/05 07:14:59;;;;;;;;;;;16.00;84.60;;;;;;4964935;28;19994;-74
2022/05/05 07:17:26;;;;;;;;;;;16.00;84.50;;;;;;4980390;28;19980;-75
2022/05/05 07:19:52;;;;;;;;;;;16.10;83.80;;;;;;4981440;28;19980;-74
2022/05/05 07:22:17;;;;;;;;;;;16.30;84.40;;;;;;4980950;28;19906;-74
2022/05/05 07:24:43;;;;;;;;;;;16.20;84.30;;;;;;4963428;28;19909;-74
2022/05/05 07:27:10;;;;;;;;;;;16.30;83.30;;;;;;4981221;28;19906;-74
2022/05/05 07:29:37;;;;;;;;;;;16.50;83.10;;;;;;4979954;28;20000;-74
2022/05/05 07:32:03;;;;;;;;;;;16.70;82.40;;;;;;4979422;28;19976;-74
2022/05/05 07:34:28;;;;;;;;;;;16.90;81.30;;;;;;4978462;28;19910;-75
2022/05/05 07:36:54;;;;;;;;;;;16.80;81.30;;;;;;4978682;28;19912;-74
2022/05/05 07:39:20;;;;;;;;;;;16.80;80.80;;;;;;4979066;28;19920;-75
2022/05/05 07:41:45;;;;;;;;;;;17.00;81.30;;;;;;4962964;28;20507;-74
2022/05/05 07:44:11;;;;;;;;;;;17.00;80.50;;;;;;4980126;28;19902;-74
2022/05/05 07:46:36;;;;;;;;;;;17.10;80.30;;;;;;4978743;28;19993;-73
2022/05/05 07:49:03;;;;;;;;;;;17.20;79.90;;;;;;4979044;28;19913;-76
2022/05/05 07:51:29;;;;;;;;;;;18.80;79.10;;;;;;4979233;28;19905;-74
2022/05/05 07:56:40;;;;;;;;;;;18.00;77.50;;;;;;4978607;28;19912;-76
2022/05/05 07:59:06;;;;;;;;;;;18.00;76.60;;;;;;4979480;28;19906;-74
2022/05/05 08:01:31;;;;;;;;;;;18.20;76.50;;;;;;4962244;28;19917;-75
2022/05/05 08:03:57;;;;;;;;;;;18.40;75.60;;;;;;4979466;28;19929;-75
2022/05/05 08:06:22;;;;;;;;;;;18.50;76.20;;;;;;4978717;28;20533;-76
2022/05/05 08:08:48;;;;;;;;;;;18.60;75.80;;;;;;4981146;28;19964;-74
2022/05/05 08:11:14;;;;;;;;;;;18.60;75.30;;;;;;4982606;28;19941;-74
2022/05/05 08:13:39;;;;;;;;;;;18.80;74.00;;;;;;4983084;28;19917;-75
2022/05/05 08:16:05;;;;;;;;;;;18.80;72.50;;;;;;4983217;28;19905;-74
2022/05/05 08:18:30;;;;;;;;;;;18.90;70.20;;;;;;4982558;28;19921;-76
2022/05/05 08:20:56;;;;;;;;;;;19.00;69.60;;;;;;4982347;28;20143;-75
2022/05/05 08:23:22;;;;;;;;;;;19.50;69.80;;;;;;4981956;28;19910;-75
2022/05/05 08:28:33;;;;;;;;;;;19.30;69.50;;;;;;4983303;28;19976;-81
2022/05/05 08:30:59;;;;;;;;;;;19.30;68.80;;;;;;4982270;28;19906;-74
2022/05/05 08:33:27;;;;;;;;;;;19.20;67.10;;;;;;4982433;28;20024;-73
2022/05/05 08:38:28;;;;;;;;;;;19.90;65.90;;;;;;5166461;23;19921;-76
2022/05/05 08:40:54;;;;;;;;;;;19.90;65.70;;;;;;5000727;28;19908;-76
2022/05/05 08:43:19;;;;;;;;;;;20.90;65.90;;;;;;4999786;28;19921;-72
2022/05/05 08:45:45;;;;;;;;;;;19.90;65.60;;;;;;5000115;28;19912;-73
2022/05/05 08:48:12;;;;;;;;;;;20.10;65.40;;;;;;5000259;28;19906;-76
2022/05/05 08:50:38;;;;;;;;;;;20.30;66.00;;;;;;5000827;28;20141;-75
2022/05/05 08:53:05;;;;;;;;;;;20.50;65.70;;;;;;4999999;28;19914;-73
2022/05/05 08:55:30;;;;;;;;;;;20.40;66.70;;;;;;5000550;28;19912;-77
2022/05/05 08:57:56;;;;;;;;;;;20.70;65.80;;;;;;5000646;28;19901;-75
2022/05/05 09:00:24;;;;;;;;;;;21.20;66.20;;;;;;5000867;28;20395;-76
2022/05/05 09:02:58;;;;;;;;;;;21.00;66.90;;;;;;5000600;28;20552;-74
2022/05/05 09:05:48;;;;;;;;;;;21.40;63.60;;;;;;5000130;28;19912;-73
2022/05/05 09:08:25;;;;;;;;;;;21.30;64.80;;;;;;5000886;28;20565;-78
2022/05/05 09:10:52;;;;;;;;;;;21.00;66.60;;;;;;4987453;28;20403;-75
2022/05/05 09:13:24;;;;;;;;;;;21.30;64.30;;;;;;4981321;28;19953;-76
2022/05/05 09:15:51;;;;;;;;;;;21.40;61.10;;;;;;4981079;28;19901;-75
2022/05/05 09:18:17;;;;;;;;;;;21.20;63.10;;;;;;4981187;28;19902;-76
2022/05/05 09:20:44;;;;;;;;;;;21.30;63.80;;;;;;4980415;28;19906;-75
2022/05/05 09:23:25;;;;;;;;;;;21.00;62.20;;;;;;4969577;28;19910;-73
2022/05/05 09:25:51;;;;;;;;;;;21.00;60.40;;;;;;4961483;28;20609;-72
2022/05/05 09:28:20;;;;;;;;;;;21.30;60.40;;;;;;4961403;28;20013;-72
2022/05/05 09:30:47;;;;;;;;;;;21.30;59.40;;;;;;4961631;28;19906;-73
2022/05/05 09:33:17;;;;;;;;;;;21.70;59.50;;;;;;4961830;28;19921;-74
2022/05/05 09:35:43;;;;;;;;;;;22.10;58.50;;;;;;4961087;28;19910;-73
2022/05/05 09:38:09;;;;;;;;;;;21.90;57.10;;;;;;4960813;28;19922;-76
2022/05/05 09:40:34;;;;;;;;;;;22.00;56.80;;;;;;4961014;28;19961;-77
2022/05/05 09:43:01;;;;;;;;;;;21.80;57.50;;;;;;4961060;28;20546;-76
2022/05/05 09:45:33;;;;;;;;;;;21.90;56.50;;;;;;4943970;28;20555;-75
2022/05/05 09:48:02;;;;;;;;;;;21.80;56.20;;;;;;4960949;28;19996;-75
2022/05/05 10:01:13;;;;;;;5.95;2.33;;;22.10;54.60;;;;;;5040710;28;20388;-73
2022/05/05 10:04:02;;;;;;;5.22;2.47;;;22.00;54.90;;;;;;5034466;28;20017;-82
2022/05/05 10:06:31;;;;;;;4.75;2.38;;;21.90;55.00;;;;;;5033658;28;20021;-70
2022/05/05 10:09:06;;;;;;;5.13;2.42;;;23.60;53.30;;;;;;5034514;28;20541;-87
2022/05/05 10:11:34;;;;;;;3.38;1.92;;;22.00;51.90;;;;;;5034036;28;20018;-74
2022/05/05 10:14:01;;;;;;;6.32;2.72;;;22.00;53.20;;;;;;5033457;28;20065;-75
2022/05/05 10:16:30;;;;;;;7.47;2.20;;;22.50;51.90;;;;;;5032281;28;20718;-75
2022/05/05 10:18:56;;;;;;;5.15;2.15;;;22.30;50.80;;;;;;5032331;28;20515;-75
2022/05/05 10:21:37;;;;;;;4.28;2.00;;;22.80;50.30;;;;;;5033441;28;20025;-69
2022/05/05 10:24:15;;;;;;;5.07;2.70;;;22.60;48.90;;;;;;5033174;28;20021;-74
2022/05/05 10:26:41;;;;;;;4.93;2.50;;;22.70;47.70;;;;;;5033205;28;20056;-72
2022/05/05 10:29:32;;;;;;;5.75;2.53;;;22.30;49.50;;;;;;5033541;28;20025;-72
2022/05/05 10:32:13;;;;;;;5.95;2.20;;;22.70;48.30;;;;;;5033092;28;20542;-73
2022/05/05 10:34:40;;;;;;;5.82;2.75;;;22.50;49.10;;;;;;5033633;28;20065;-75
2022/05/05 10:37:14;;;;;;;4.63;2.17;;;23.00;51.00;;;;;;5033514;28;20013;-73
2022/05/05 10:39:44;;;;;;;7.25;2.70;;;23.30;46.20;;;;;;5032781;28;20029;-76
2022/05/05 10:42:16;;;;;;;4.18;2.05;;;23.30;46.20;;;;;;5033079;28;20017;-70
2022/05/05 10:45:09;;;;;;;3.30;1.98;;;23.90;46.90;;;;;;5033044;28;20025;-76
2022/05/05 10:47:55;;;;;;;14.00;4.03;;;23.80;46.20;;;;;;5032827;28;20032;-70
2022/05/05 10:50:34;;;;;;;5.85;2.20;;;23.70;48.80;;;;;;5032849;28;20651;-69
2022/05/05 10:53:01;;;;;;;6.55;2.80;;;24.10;47.00;;;;;;5032825;28;20129;-70
2022/05/05 10:55:39;;;;;;;5.15;2.38;;;23.90;46.50;;;;;;5031552;28;20026;-70
2022/05/05 10:58:05;;;;;;;7.10;2.63;;;24.00;45.90;;;;;;5032931;28;20021;-69
2022/05/05 11:00:40;;;;;;;6.03;2.70;;;24.30;45.40;;;;;;5032356;28;20060;-68
2022/05/05 11:03:09;;;;;;;6.05;2.40;;;24.40;44.60;;;;;;5033034;28;20013;-69
2022/05/05 11:05:39;;;;;;;6.47;2.55;;;24.50;43.80;;;;;;5031689;28;20678;-69
2022/05/05 11:08:08;;;;;;;6.57;2.58;;;24.40;43.50;;;;;;5032082;28;20120;-73
2022/05/05 11:11:40;;;;;;;5.57;2.17;;;24.00;42.40;;;;;;5027947;28;20022;-73
2022/05/05 11:13:40;;;;;;;4.22;2.42;;;23.90;43.20;;;;;;5019649;28;20031;-69
2022/05/05 11:22:14;;;;;;;5.05;2.03;;;23.40;42.30;;;;;;5019474;28;20072;-69
2022/05/05 11:24:45;;;;;;;4.65;2.15;;;23.30;43.80;;;;;;5019269;28;20718;-66
2022/05/05 11:27:20;;;;;;;3.60;1.92;;;23.50;42.90;;;;;;5019367;28;20056;-69
2022/05/05 11:30:05;;;;;;;3.58;1.98;;;23.70;42.30;;;;;;5019290;28;20276;-76
2022/05/05 11:32:35;;;;;;;5.72;2.30;;;23.60;42.70;;;;;;5018817;28;20040;-68
2022/05/05 11:35:02;;;;;;;3.78;1.90;;;23.20;43.30;;;;;;5018071;28;20584;-77
2022/05/05 11:37:29;;;;;;;2.58;1.75;;;23.60;43.40;;;;;;5019053;28;20025;-71
2022/05/05 11:39:55;;;;;;;6.43;2.72;;;23.70;42.60;;;;;;5018516;28;20033;-68
2022/05/05 11:42:21;;;;;;;6.80;2.63;;;23.50;42.30;;;;;;5018951;28;20095;-69
2022/05/05 11:44:48;;;;;;;3.83;1.80;;;23.70;42.80;;;;;;5018821;28;20608;-70
2022/05/05 11:47:18;;;;;;;5.43;2.20;;;23.70;41.70;;;;;;5018685;28;20101;-74
2022/05/05 11:49:48;;;;;;;4.50;2.25;;;23.80;41.80;;;;;;5019055;28;20096;-75
2022/05/05 11:52:21;;;;;;;6.25;2.33;;;23.70;41.90;;;;;;5018994;28;20022;-71
2022/05/05 11:54:50;;;;;;;3.97;1.85;;;23.70;41.80;;;;;;5018942;28;20021;-71
2022/05/05 11:57:35;;;;;;;3.88;2.35;;;23.70;41.70;;;;;;5018950;28;20026;-71
2022/05/05 12:02:48;;;;;;;5.95;2.55;;;23.90;42.00;;;;;;5018465;28;20144;-77
2022/05/05 12:05:14;;;;;;;4.15;1.95;;;24.60;41.40;;;;;;5018844;28;20104;-74
2022/05/05 12:07:44;;;;;;;6.57;2.00;;;24.90;40.80;;;;;;5017609;28;20025;-73
2022/05/05 12:10:12;;;;;;;5.35;2.33;;;24.40;41.10;;;;;;5017055;28;20041;-75
2022/05/05 12:12:43;;;;;;;3.25;1.98;;;24.50;41.10;;;;;;5018478;28;20021;-74
2022/05/05 12:15:10;;;;;;;5.75;2.60;;;24.20;41.30;;;;;;5018486;28;20045;-74
2022/05/05 12:17:40;;;;;;;6.75;1.80;;;23.90;41.20;;;;;;5018095;28;20017;-74
2022/05/05 12:20:07;;;;;;;8.15;2.38;;;24.10;40.80;;;;;;5018113;28;20530;-74
2022/05/05 12:22:34;;;;;;;11.07;2.30;;;24.50;40.40;;;;;;5015874;28;20034;-76
2022/05/05 12:25:17;;;;;;;4.68;2.22;;;24.00;40.60;;;;;;5018083;28;20021;-74
2022/05/05 12:27:53;;;;;;;5.03;2.42;;;24.10;41.10;;;;;;5018017;28;20021;-72
2022/05/05 12:30:37;;;;;;;18.45;2.95;;;24.60;41.80;;;;;;5017942;28;20025;-74
2022/05/05 12:33:05;;;;;;;4.63;2.10;;;25.00;40.70;;;;;;5016590;28;20055;-70
2022/05/05 12:35:32;;;;;;;4.47;2.55;;;24.80;39.30;;;;;;5017952;28;20029;-73
2022/05/05 12:37:58;;;;;;;4.90;2.28;;;24.30;39.90;;;;;;5017699;28;20022;-71
2022/05/05 12:40:24;;;;;;;4.13;2.13;;;24.30;39.90;;;;;;5017618;28;20671;-72
2022/05/05 12:42:50;;;;;;;5.30;2.05;;;23.90;39.70;;;;;;5018303;28;20026;-73
2022/05/05 12:45:28;;;;;;;5.53;2.58;;;23.70;40.00;;;;;;5017847;28;20680;-73
2022/05/05 12:47:58;;;;;;;5.72;2.70;;;23.80;40.60;;;;;;5017678;28;20210;-69
2022/05/05 12:50:34;;;;;;;5.50;2.70;;;23.80;41.10;;;;;;5017378;28;20024;-72
2022/05/05 13:01:38;;;;;;;6.15;2.75;;;24.00;41.10;;;;;;5017527;28;20040;-71
2022/05/05 13:04:07;;;;;;;6.82;2.15;;;23.50;41.70;;;;;;5017184;28;20326;-69
2022/05/05 13:06:35;;;;;;;4.68;2.10;;;24.90;43.40;;;;;;5016152;28;20241;-67
2022/05/05 13:09:01;;;;;;;3.42;1.90;;;23.30;42.70;;;;;;5017401;28;20180;-73
2022/05/05 13:11:27;;;;;;;4.80;2.22;;;23.30;43.10;;;;;;5017033;28;20022;-68
2022/05/05 13:13:53;;;;;;;6.00;2.60;;;23.30;43.30;;;;;;5017037;28;20013;-69
2022/05/05 13:16:19;;;;;;;8.55;2.80;;;23.50;42.80;;;;;;5017433;28;20717;-71
2022/05/05 13:18:44;;;;;;;6.80;2.95;;;23.30;42.70;;;;;;5017117;28;20682;-67
2022/05/05 13:21:10;;;;;;;4.85;2.38;;;23.50;43.00;;;;;;5016935;28;20030;-69
2022/05/05 13:23:37;;;;;;;4.40;2.38;;;23.50;42.50;;;;;;5015970;28;20045;-68
2022/05/05 13:26:03;;;;;;;5.82;2.25;;;23.30;43.30;;;;;;5016793;28;20091;-68
2022/05/05 13:28:31;;;;;;;5.45;2.47;;;23.30;42.50;;;;;;5016938;28;20056;-68
2022/05/05 13:30:57;;;;;;;5.03;1.88;;;23.10;43.90;;;;;;5016966;28;20036;-73
2022/05/05 13:33:23;;;;;;;6.90;2.92;;;23.00;44.30;;;;;;5016637;28;20022;-69
2022/05/05 13:35:49;;;;;;;8.48;3.38;;;22.90;44.30;;;;;;5015750;28;20572;-68
2022/05/05 13:38:14;;;;;;;6.25;3.13;;;22.70;45.20;;;;;;5017032;28;20025;-69
2022/05/05 13:40:40;;;;;;;6.00;2.88;;;22.80;45.00;;;;;;5017106;28;20086;-70
2022/05/05 13:43:06;;;;;;;4.60;2.25;;;22.70;44.80;;;;;;5016486;28;20025;-70
2022/05/05 13:45:32;;;;;;;6.97;2.70;;;22.60;45.10;;;;;;5016805;28;20025;-73
2022/05/05 13:47:58;;;;;;;11.38;4.35;;;22.40;44.80;;;;;;5016774;28;20026;-70
2022/05/05 13:50:24;;;;;;;7.57;2.58;;;22.40;45.70;;;;;;5016774;28;20052;-75
2022/05/05 13:52:49;;;;;;;5.63;2.13;;;22.40;46.10;;;;;;5015158;28;20411;-69
2022/05/05 13:55:15;;;;;;;6.35;2.38;;;22.30;46.40;;;;;;4995971;28;20022;-70
2022/05/05 13:57:41;;;;;;;6.45;2.47;;;22.20;46.80;;;;;;4997369;28;20037;-68
2022/05/05 14:00:12;;;;;;;5.63;2.45;;;22.00;47.20;;;;;;4996686;28;20745;-70
2022/05/05 14:02:38;;;;;;;4.75;2.42;;;22.20;47.10;;;;;;4996670;28;20022;-68
2022/05/05 14:05:04;;;;;;;4.53;2.25;;;22.40;47.20;;;;;;4997111;28;20022;-79
2022/05/05 14:12:58;;;;;;;9.25;3.10;;;22.10;47.30;;;;;;4996371;28;20076;-68
2022/05/05 14:15:24;;;;;;;5.78;2.78;;;22.20;48.00;;;;;;4996867;28;20022;-71
2022/05/05 14:17:50;;;;;;;4.78;2.75;;;22.20;48.40;;;;;;4996535;28;20049;-70
2022/05/05 14:20:15;;;;;;;13.30;4.18;;;22.00;48.40;;;;;;4996572;28;20538;-72
2022/05/05 14:22:41;;;;;;;4.63;2.40;;;21.90;48.50;;;;;;4997067;28;20041;-72
2022/05/05 14:25:11;;;;;;;5.75;2.70;;;21.70;48.30;;;;;;5013323;28;20784;-73
2022/05/05 14:27:38;;;;;;;6.85;2.38;;;21.90;48.60;;;;;;5016788;28;20037;-69
2022/05/05 14:30:05;;;;;;;4.57;2.28;;;21.50;48.00;;;;;;5016316;28;20211;-69
2022/05/05 14:32:31;;;;;;;6.75;2.67;;;21.50;48.30;;;;;;5016469;28;20024;-70
2022/05/05 14:34:56;;;;;;;7.32;2.80;;;21.30;48.20;;;;;;5016914;28;20616;-72
2022/05/05 14:37:22;;;;;;;5.80;2.80;;;21.30;48.50;;;;;;5016316;28;20725;-71
2022/05/05 14:39:48;;;;;;;5.07;2.58;;;21.30;48.10;;;;;;5015743;28;20717;-71
2022/05/05 14:42:13;;;;;;;9.02;2.70;;;21.10;48.40;;;;;;5016537;28;20660;-72
2022/05/05 14:44:39;;;;;;;5.70;2.47;;;21.20;49.10;;;;;;5016217;28;20014;-73
2022/05/05 14:47:06;;;;;;;5.45;2.60;;;21.10;49.00;;;;;;5018758;28;20507;-70
2022/05/05 14:49:32;;;;;;;4.35;2.40;;;21.00;49.10;;;;;;5019698;28;20030;-69
2022/05/05 14:51:58;;;;;;;6.38;3.17;;;21.00;49.10;;;;;;5019514;28;20021;-69
2022/05/05 14:54:23;;;;;;;10.63;2.78;;;20.90;49.30;;;;;;5017754;28;20112;-74